AirNav   Air Wisconsin Up To $57,000 Bonus
 
 1100 users online  

OL24 Ronka Rhey Airport
Luther, Oklahoma, USA


FAA INFORMATION EFFECTIVE 03 NOVEMBER 2022

Location

FAA Identifier: OL24
Lat/Long: 35-44-10.1750N 097-11-20.7000W
35-44.169583N 097-11.345000W
35.7361597,-97.1890833
(estimated)
Elevation: 981 ft. / 299 m (estimated)
From city: 4 miles N of LUTHER, OK
Time zone: UTC -6 (UTC -5 during Daylight Saving Time)
Zip code: 73054

Airport Operations

Airport use: Private use. Permission required prior to landing
Activation date: 03/2020
Control tower: no
ARTCC: FORT WORTH CENTER
FSS: MC ALESTER FLIGHT SERVICE STATION
Attendance: 
Wind indicator: no
Segmented circle: no

Airport Communications

WX ASOS at GOK (13 nm NW): 133.975 (405-282-0478)
WX AWOS-3PT at CQB (18 nm E): 119.275 (405-258-6724)

Nearby radio navigation aids

VOR radial/distance  VOR name  Freq  Var
PWAr053/25.4WILEY POST VOR/DME113.4008E
SWOr183/29.7STILLWATER VOR/DME108.4007E
IRWr035/30.6WILL ROGERS VORTAC114.1007E

 
NDB name  Hdg/Dist  Freq  Var  ID
SEMINOLE312/37.527806ESRE ... .-. .

Airport Services

Airframe service: NONE
Powerplant service: NONE
Bottled oxygen: NONE
Bulk oxygen: NONE

Runway Information

Runway 1/19

Dimensions: 2000 x 50 ft. / 610 x 15 m
Surface: turf, in fair condition
RUNWAY 1  RUNWAY 19
Latitude: 35-44.009167N35-44.330000N
Longitude: 097-11.391667W097-11.298333W
Elevation: 980.0 ft.980.0 ft.
Traffic pattern: rightleft

Airport Ownership and Management from official FAA records

Ownership: Privately-owned
Owner: FAZENDA, LLC
1050 E. 2ND STREET, SUITE 356
EDMOND, OK 73034
Phone 405-206-3984
Manager: QUARTZ, INC.
3225 MC LEOD DRIVE, SUITE 100
LAS VEGAS, NV 89121
Phone 405-206-3984

Airport Operational Statistics

Aircraft based on the field: 1
Single engine airplanes: 1
    

Instrument Procedures

There are no published instrument procedures at OL24.

Some nearby airports with instrument procedures:

KGOK - Guthrie/Edmond Regional Airport (13 nm NW)
KCQB - Chandler Regional Airport (18 nm E)
KTIK - Tinker Air Force Base (22 nm SW)
KCUH - Cushing Municipal Airport (24 nm NE)
KPWA - Wiley Post Airport (25 nm SW)
 
Loc | Ops | Rwys | IFR | FBO | Links
Com | Nav | Svcs | Stats | Notes
Aerial photo
No photo
 
Airport distance calculator
Flying to Ronka Rhey Airport? Find the distance to fly.

From to OL24

Sunrise and sunset
Times for 29-Nov-2022
 Local
(UTC-6)
 Zulu
(UTC)
Morning civil twilight06:5112:51
Sunrise07:1913:19
Sunset17:1523:15
Evening civil twilight17:4323:43

Current date and time
Zulu (UTC)  29-Nov-2022 23:29:02
Local (UTC-6)  29-Nov-2022 17:29:02
 
METAR
KGOK 
12nm NW 
292253Z AUTO 35011G21KT 10SM OVC026 04/M02 A2992 RMK AO2 PRESRR SLP133 T00391017
KCQB 
18nm E 
292315Z AUTO 34020G23KT 10SM BKN025 05/00 A2990 RMK AO2 T00491002
KTIK 
21nm SW 
292255Z AUTO 34018KT 10SM CLR 06/M00 A2983 RMK AO2 PK WND 34028/16 PRESRR SLP109 T00601005 $
KCUH 
24nm NE 
292315Z AUTO 34017G22KT 10SM OVC024 04/M01 A2990 RMK AO2 T00431013
TAF
KTIK 
21nm SW 
291000Z 2910/3016 17012G20KT 9999 SCT250 WS020/21050KT QNH2955INS BECMG 2914/2915 21015G25KT 9999 BKN250 510053 QNH2957INS BECMG 2923/2924 33020G30KT 9999 BKN200 510053 QNH2971INS BECMG 3005/3006 35012G20KT 9999 FEW150 510023 QNH3015INS TX19/2920Z TN02/3007Z
NOTAMs
Click for the latest NOTAMs
NOTAMs are issued by the DoD/FAA and will open in a separate window not controlled by AirNav.

 

 
 

Would you like to see your business listed on this page?

 If your business provides an interesting product or service to pilots, flight crews, aircraft, or users of the Ronka Rhey Airport, you should consider listing it here.  To start the listing process, click on the button below
 
Add a business
 

Other Pages about Ronka Rhey Airport

Update a link
 
Copyright © AirNav, LLC. All rights reserved. Privacy Policy  Contact